createdAt,value
2019-04-30T00:00:40.173Z,66.69
2019-04-30T00:01:40.164Z,66.58
2019-04-30T00:02:40.202Z,66.69
2019-04-30T00:03:40.142Z,66.28
2019-04-30T00:04:40.478Z,66.48
2019-04-30T00:05:40.121Z,67.00
2019-04-30T00:06:40.124Z,66.79
2019-04-30T00:07:40.101Z,66.58
2019-04-30T00:08:40.094Z,67.30
2019-04-30T00:09:40.076Z,67.00
2019-04-30T00:10:41.388Z,66.89
2019-04-30T00:11:40.070Z,66.79
2019-04-30T00:12:40.049Z,67.00
2019-04-30T00:13:40.034Z,66.93
2019-04-30T00:14:41.381Z,67.03
2019-04-30T00:15:40.021Z,67.20
2019-04-30T00:16:40.166Z,66.82
2019-04-30T00:17:40.021Z,66.51
2019-04-30T00:18:55.420Z,67.33
2019-04-30T00:19:40.976Z,66.82
2019-04-30T00:20:39.958Z,66.61
2019-04-30T00:21:39.954Z,66.61
2019-04-30T00:22:47.023Z,66.82
2019-04-30T00:23:40.925Z,67.23
2019-04-30T00:24:44.191Z,67.23
2019-04-30T00:25:40.907Z,66.61
2019-04-30T00:26:44.064Z,67.03
2019-04-30T00:27:40.909Z,66.72
2019-04-30T00:28:46.242Z,67.33
2019-04-30T00:29:40.859Z,66.93
2019-04-30T00:30:43.898Z,66.93
2019-04-30T00:31:40.846Z,67.33
2019-04-30T00:32:43.731Z,66.93
2019-04-30T00:33:40.833Z,66.93
2019-04-30T00:34:39.814Z,66.64
2019-04-30T00:35:39.813Z,67.33
2019-04-30T00:36:39.791Z,67.57
2019-04-30T00:37:39.786Z,67.36
2019-04-30T00:38:39.777Z,67.36
2019-04-30T00:39:44.446Z,67.88
2019-04-30T00:40:40.747Z,68.29
2019-04-30T00:41:43.177Z,68.50
2019-04-30T00:42:40.726Z,67.88
2019-04-30T00:43:46.469Z,67.88
2019-04-30T00:44:40.722Z,67.47
2019-04-30T00:45:40.086Z,67.68
2019-04-30T00:46:39.678Z,68.02
2019-04-30T00:47:44.535Z,68.32
2019-04-30T00:48:40.693Z,67.71
2019-04-30T00:49:39.646Z,68.74
2019-04-30T00:50:39.643Z,68.12
2019-04-30T00:51:39.627Z,68.43
2019-04-30T00:52:39.615Z,68.32
2019-04-30T00:53:39.603Z,68.53
2019-04-30T00:54:39.610Z,68.29
2019-04-30T00:55:44.233Z,69.04
2019-04-30T00:56:40.569Z,68.74
2019-04-30T00:57:43.863Z,69.04
2019-04-30T00:58:39.554Z,69.04
2019-04-30T00:59:43.735Z,68.32
2019-04-30T01:00:40.526Z,68.32
2019-04-30T01:01:43.487Z,68.43
2019-04-30T01:02:40.511Z,68.94
2019-04-30T01:03:43.752Z,69.04
2019-04-30T01:04:40.494Z,68.02
2019-04-30T01:05:43.541Z,68.22
2019-04-30T01:06:39.474Z,68.32
2019-04-30T01:07:45.638Z,68.94
2019-04-30T01:08:40.445Z,67.91
2019-04-30T01:09:43.559Z,68.32
2019-04-30T01:10:40.427Z,68.53
2019-04-30T01:11:39.738Z,68.46
2019-04-30T01:12:46.927Z,68.46
2019-04-30T01:13:45.633Z,68.87
2019-04-30T01:14:40.381Z,69.07
2019-04-30T01:15:39.370Z,69.18
2019-04-30T01:16:39.527Z,69.38
2019-04-30T01:17:40.861Z,68.98
2019-04-30T01:18:40.345Z,69.07
2019-04-30T01:19:39.674Z,68.98
2019-04-30T01:20:40.701Z,68.98
2019-04-30T01:21:40.221Z,69.07
2019-04-30T01:22:40.294Z,69.01
2019-04-30T01:23:41.787Z,69.79
2019-04-30T01:24:40.276Z,69.28
2019-04-30T01:25:43.104Z,69.38
2019-04-30T01:26:40.257Z,69.21
2019-04-30T01:27:45.732Z,69.18
2019-04-30T01:28:40.223Z,69.18
2019-04-30T01:29:44.194Z,69.59
2019-04-30T01:30:40.211Z,69.07
2019-04-30T01:31:40.793Z,69.42
2019-04-30T01:32:39.480Z,69.70
2019-04-30T01:33:39.179Z,69.28
2019-04-30T01:34:39.551Z,68.98
2019-04-30T01:35:40.614Z,69.49
2019-04-30T01:36:39.317Z,69.28
2019-04-30T01:37:39.138Z,69.79
2019-04-30T01:38:40.379Z,69.83
2019-04-30T01:39:40.105Z,69.79
2019-04-30T01:40:42.915Z,69.70
2019-04-30T01:41:40.265Z,69.70
2019-04-30T01:42:41.166Z,69.70
2019-04-30T01:43:40.065Z,69.90
2019-04-30T01:44:39.242Z,69.52
2019-04-30T01:45:39.046Z,69.49
2019-04-30T01:46:39.135Z,69.73
2019-04-30T01:47:39.724Z,70.14
2019-04-30T01:48:39.363Z,69.70
2019-04-30T01:49:42.853Z,69.31
2019-04-30T01:50:42.035Z,69.73
2019-04-30T01:51:38.992Z,69.62
2019-04-30T01:52:41.132Z,69.73
2019-04-30T01:53:43.515Z,69.62
2019-04-30T01:54:39.211Z,69.73
2019-04-30T01:55:38.996Z,69.62
2019-04-30T01:56:39.036Z,69.42
2019-04-30T01:57:39.072Z,69.42
2019-04-30T01:58:39.341Z,69.93
2019-04-30T01:59:38.886Z,69.83
2019-04-30T02:00:39.149Z,69.73
2019-04-30T02:01:39.061Z,70.04
2019-04-30T02:02:39.449Z,69.86
2019-04-30T02:03:40.093Z,70.04
2019-04-30T02:04:39.351Z,69.65
2019-04-30T02:05:38.823Z,70.04
2019-04-30T02:06:39.178Z,69.52
2019-04-30T02:07:40.398Z,69.86
2019-04-30T02:08:39.340Z,70.07
2019-04-30T02:09:38.877Z,69.96
2019-04-30T02:10:40.389Z,69.86
2019-04-30T02:11:38.937Z,69.96
2019-04-30T02:12:39.268Z,70.07
2019-04-30T02:13:39.233Z,70.07
2019-04-30T02:14:39.499Z,70.17
2019-04-30T02:15:39.060Z,70.48
2019-04-30T02:16:39.575Z,70.17
2019-04-30T02:17:38.945Z,70.37
2019-04-30T02:18:39.416Z,70.17
2019-04-30T02:19:39.077Z,70.17
2019-04-30T02:20:38.709Z,70.20
2019-04-30T02:21:38.695Z,70.28
2019-04-30T02:22:39.080Z,70.37
2019-04-30T02:23:39.252Z,70.37
2019-04-30T02:24:38.719Z,70.31
2019-04-30T02:25:39.914Z,70.28
2019-04-30T02:26:38.617Z,70.28
2019-04-30T02:27:39.036Z,70.17
2019-04-30T02:28:39.345Z,70.17
2019-04-30T02:29:39.714Z,69.96
2019-04-30T02:30:40.439Z,70.17
2019-04-30T02:31:40.807Z,70.07
2019-04-30T02:32:39.502Z,70.07
2019-04-30T02:33:40.447Z,70.48
2019-04-30T02:34:41.158Z,70.37
2019-04-30T02:35:40.655Z,70.37
2019-04-30T02:36:40.318Z,70.48
2019-04-30T02:37:39.957Z,70.28
2019-04-30T02:38:39.582Z,70.37
2019-04-30T02:39:40.341Z,70.68
2019-04-30T02:40:39.338Z,70.58
2019-04-30T02:41:41.170Z,70.48
2019-04-30T02:42:39.804Z,70.82
2019-04-30T02:43:39.841Z,70.62
2019-04-30T02:44:40.695Z,70.62
2019-04-30T02:45:40.079Z,70.82
2019-04-30T02:46:40.645Z,70.62
2019-04-30T02:47:39.967Z,70.82
2019-04-30T02:48:39.670Z,70.62
2019-04-30T02:49:39.852Z,70.68
2019-04-30T02:50:39.325Z,70.72
2019-04-30T02:51:39.957Z,70.62
2019-04-30T02:52:40.174Z,70.92
2019-04-30T02:53:40.218Z,70.82
2019-04-30T02:54:39.595Z,71.13
2019-04-30T02:55:40.349Z,71.13
2019-04-30T02:56:39.946Z,71.16
2019-04-30T02:57:40.135Z,71.55
2019-04-30T02:58:40.854Z,71.34
2019-04-30T02:59:40.273Z,71.37
2019-04-30T03:00:39.335Z,71.47
2019-04-30T03:01:40.226Z,71.68
2019-04-30T03:02:39.447Z,71.37
2019-04-30T03:03:39.700Z,71.58
2019-04-30T03:04:39.560Z,71.81
2019-04-30T03:05:39.235Z,72.81
2019-04-30T03:06:40.116Z,71.99
2019-04-30T03:07:40.520Z,71.78
2019-04-30T03:08:40.380Z,72.19
2019-04-30T03:09:39.359Z,72.19
2019-04-30T03:10:40.181Z,71.78
2019-04-30T03:11:40.608Z,71.99
2019-04-30T03:12:40.544Z,71.78
2019-04-30T03:13:42.535Z,71.78
2019-04-30T03:14:40.059Z,71.68
2019-04-30T03:15:39.499Z,71.58
2019-04-30T03:16:40.104Z,71.37
2019-04-30T03:17:39.443Z,71.20
2019-04-30T03:18:39.602Z,71.16
2019-04-30T03:19:40.115Z,70.99
2019-04-30T03:20:40.005Z,71.16
2019-04-30T03:21:40.360Z,71.26
2019-04-30T03:22:39.925Z,71.30
2019-04-30T03:23:39.157Z,71.06
2019-04-30T03:24:42.303Z,70.99
2019-04-30T03:25:40.359Z,71.26
2019-04-30T03:26:40.021Z,71.58
2019-04-30T03:27:42.267Z,71.37
2019-04-30T03:28:39.640Z,71.26
2019-04-30T03:29:40.471Z,71.16
2019-04-30T03:30:42.009Z,70.78
2019-04-30T03:31:42.812Z,70.86
2019-04-30T03:32:42.995Z,71.16
2019-04-30T03:33:41.923Z,71.26
2019-04-30T03:34:41.833Z,71.30
2019-04-30T03:35:42.224Z,71.16
2019-04-30T03:36:40.379Z,71.09
2019-04-30T03:37:39.634Z,71.20
2019-04-30T03:38:39.626Z,70.99
2019-04-30T03:39:40.036Z,71.09
2019-04-30T03:40:40.326Z,70.99
2019-04-30T03:41:40.452Z,71.30
2019-04-30T03:42:39.633Z,70.89
2019-04-30T03:43:39.873Z,70.99
2019-04-30T03:44:40.051Z,71.20
2019-04-30T03:45:40.104Z,71.30
2019-04-30T03:46:40.121Z,71.09
2019-04-30T03:47:40.401Z,70.99
2019-04-30T03:48:39.546Z,71.09
2019-04-30T03:49:40.280Z,71.20
2019-04-30T03:50:50.356Z,70.89
2019-04-30T03:51:40.254Z,70.99
2019-04-30T03:52:39.479Z,71.81
2019-04-30T03:53:42.387Z,72.33
2019-04-30T03:54:40.552Z,72.64
2019-04-30T03:55:39.909Z,72.54
2019-04-30T03:56:39.674Z,71.81
2019-04-30T03:57:39.844Z,72.02
2019-04-30T03:58:39.526Z,71.81
2019-04-30T03:59:39.679Z,71.71
2019-04-30T04:00:42.202Z,71.09
2019-04-30T04:01:39.724Z,71.23
2019-04-30T04:02:40.260Z,71.20
2019-04-30T04:03:42.080Z,70.99
2019-04-30T04:04:39.686Z,71.51
2019-04-30T04:05:39.734Z,71.30
2019-04-30T04:06:39.421Z,71.30
2019-04-30T04:07:39.455Z,71.30
2019-04-30T04:08:39.097Z,70.78
2019-04-30T04:09:39.974Z,71.30
2019-04-30T04:10:37.480Z,70.89
2019-04-30T04:11:39.667Z,70.78
2019-04-30T04:12:39.489Z,70.68
2019-04-30T04:13:39.920Z,71.06
2019-04-30T04:14:39.415Z,70.78
2019-04-30T04:15:39.703Z,70.99
2019-04-30T04:16:40.561Z,71.09
2019-04-30T04:17:39.757Z,70.54
2019-04-30T04:18:40.018Z,70.78
2019-04-30T04:19:39.300Z,70.68
2019-04-30T04:20:39.541Z,70.75
2019-04-30T04:21:39.335Z,70.44
2019-04-30T04:22:40.090Z,70.57
2019-04-30T04:23:39.949Z,70.44
2019-04-30T04:24:40.059Z,70.44
2019-04-30T04:25:39.702Z,70.86
2019-04-30T04:26:37.306Z,70.65
2019-04-30T04:27:39.298Z,70.68
2019-04-30T04:28:42.497Z,71.06
2019-04-30T04:29:40.338Z,70.86
2019-04-30T04:30:39.290Z,70.44
2019-04-30T04:31:39.511Z,70.65
2019-04-30T04:32:39.938Z,70.44
2019-04-30T04:33:39.589Z,70.23
2019-04-30T04:34:37.230Z,70.23
2019-04-30T04:35:39.178Z,70.03
2019-04-30T04:36:39.943Z,69.93
2019-04-30T04:37:39.467Z,69.31
2019-04-30T04:38:40.065Z,70.00
2019-04-30T04:39:38.898Z,69.48
2019-04-30T04:40:39.841Z,69.48
2019-04-30T04:41:39.733Z,69.48
2019-04-30T04:42:39.589Z,69.17
2019-04-30T04:43:37.123Z,69.59
2019-04-30T04:44:39.338Z,69.38
2019-04-30T04:45:40.389Z,69.17
2019-04-30T04:46:40.168Z,68.83
2019-04-30T04:47:37.081Z,69.17
2019-04-30T04:48:39.455Z,68.55
2019-04-30T04:49:39.619Z,68.73
2019-04-30T04:50:37.046Z,69.14
2019-04-30T04:51:39.448Z,69.17
2019-04-30T04:52:39.632Z,68.83
2019-04-30T04:53:37.025Z,68.93
2019-04-30T04:54:37.015Z,68.73
2019-04-30T04:55:36.996Z,68.93
2019-04-30T04:56:36.987Z,68.93
2019-04-30T04:57:36.981Z,68.83
2019-04-30T04:58:36.998Z,68.32
2019-04-30T04:59:39.385Z,69.04
2019-04-30T05:00:39.175Z,68.62
2019-04-30T05:01:38.758Z,68.83
2019-04-30T05:02:39.573Z,68.80
2019-04-30T05:03:36.921Z,68.80
2019-04-30T05:04:36.911Z,68.08
2019-04-30T05:05:36.913Z,69.11
2019-04-30T05:06:36.907Z,68.39
2019-04-30T05:07:36.869Z,68.29
2019-04-30T05:08:36.853Z,68.70
2019-04-30T05:09:36.848Z,68.25
2019-04-30T05:10:36.880Z,67.94
2019-04-30T05:11:36.824Z,67.53
2019-04-30T05:12:37.945Z,67.02
2019-04-30T05:13:36.808Z,67.33
2019-04-30T05:14:38.533Z,67.02
2019-04-30T05:15:36.827Z,67.33
2019-04-30T05:16:38.815Z,66.81
2019-04-30T05:17:36.755Z,67.53
2019-04-30T05:18:36.747Z,66.78
2019-04-30T05:19:38.455Z,66.99
2019-04-30T05:20:39.840Z,66.78
2019-04-30T05:21:42.672Z,67.09
2019-04-30T05:22:38.911Z,66.99
2019-04-30T05:23:36.689Z,66.88
2019-04-30T05:24:38.450Z,67.16
2019-04-30T05:25:36.667Z,67.26
2019-04-30T05:26:38.594Z,66.64
2019-04-30T05:27:36.645Z,66.34
2019-04-30T05:28:36.640Z,66.51
2019-04-30T05:29:38.601Z,66.20
2019-04-30T05:30:36.614Z,66.31
2019-04-30T05:31:38.463Z,66.20
2019-04-30T05:32:36.610Z,64.97
2019-04-30T05:33:36.587Z,65.77
2019-04-30T05:34:38.553Z,66.48
2019-04-30T05:35:38.729Z,66.79
2019-04-30T05:36:36.588Z,66.14
2019-04-30T05:37:38.421Z,65.32
2019-04-30T05:38:36.543Z,65.32
2019-04-30T05:39:36.520Z,65.32
2019-04-30T05:40:36.508Z,65.09
2019-04-30T05:41:36.492Z,65.09
2019-04-30T05:42:38.507Z,64.57
2019-04-30T05:43:36.476Z,64.78
2019-04-30T05:44:36.465Z,64.37
2019-04-30T05:45:36.455Z,64.88
2019-04-30T05:46:36.449Z,64.64
2019-04-30T05:47:36.451Z,64.44
2019-04-30T05:48:36.425Z,64.34
2019-04-30T05:49:36.422Z,63.90
2019-04-30T05:50:36.400Z,63.59
2019-04-30T05:51:54.929Z,63.39
2019-04-30T05:52:39.491Z,63.05
